Time;durP1;ratioP1;P1;durP2;ratioP2;P2;SDS_P1;SDS_P2;PMS_P1;PMS_P2;Temp;Humidity;BMP_temperature;BMP_pressure;BME280_temperature;BME280_humidity;BME280_pressure;Samples;Min_cycle;Max_cycle;Signal;HPM_P1;HPM_P2
2023/01/01 00:00:05;;;;;;;10.13;1.73;;;;;;;16.14;57.75;99722.38;5072983;28;20183;-73
2023/01/01 00:02:31;;;;;;;1.03;0.80;;;;;;;16.00;58.27;99727.63;5072757;28;20217;-73
2023/01/01 00:04:56;;;;;;;1.23;0.70;;;;;;;16.00;58.26;99733.13;5071681;28;20186;-72
2023/01/01 00:07:21;;;;;;;1.33;1.30;;;;;;;16.14;57.51;99724.31;5073068;28;20576;-73
2023/01/01 00:12:31;;;;;;;3.37;1.27;;;;;;;16.19;57.18;99740.53;5052776;28;20665;-72
2023/01/01 00:14:57;;;;;;;7.47;2.53;;;;;;;16.21;57.00;99735.50;5052809;28;20179;-73
2023/01/01 00:17:22;;;;;;;2.10;1.00;;;;;;;16.27;56.87;99745.03;5052672;28;20630;-72
2023/01/01 00:19:47;;;;;;;6.17;2.13;;;;;;;16.28;56.98;99728.13;5052696;28;20179;-73
2023/01/01 00:22:12;;;;;;;5.93;1.27;;;;;;;16.23;57.32;99741.44;5052475;28;20299;-72
2023/01/01 00:24:38;;;;;;;1.17;0.80;;;;;;;16.31;57.02;99743.13;5052689;28;20290;-72
2023/01/01 00:27:03;;;;;;;1.07;0.80;;;;;;;16.33;56.66;99727.03;5052357;28;20233;-72
2023/01/01 00:29:28;;;;;;;7.07;1.63;;;;;;;16.31;56.84;99756.91;5052502;28;20233;-72
2023/01/01 00:31:54;;;;;;;1.70;1.00;;;;;;;16.31;56.92;99727.38;5052482;28;20285;-72
2023/01/01 00:34:19;;;;;;;3.03;0.53;;;;;;;16.35;56.52;99736.53;5052198;28;20565;-73
2023/01/01 00:36:44;;;;;;;4.33;2.20;;;;;;;16.31;57.03;99743.13;5060991;28;20182;-73
2023/01/01 00:39:09;;;;;;;13.50;1.30;;;;;;;16.28;57.19;99741.91;5072290;28;20179;-72
2023/01/01 00:41:35;;;;;;;13.57;1.97;;;;;;;16.35;56.73;99733.78;5071938;28;20244;-72
2023/01/01 00:44:00;;;;;;;2.20;1.73;;;;;;;16.27;56.95;99731.25;5071577;28;20254;-72
2023/01/01 00:46:26;;;;;;;1.50;0.70;;;;;;;16.32;56.74;99717.97;5071424;28;20179;-72
2023/01/01 00:48:51;;;;;;;4.70;1.73;;;;;;;16.32;56.56;99728.97;5071877;28;20174;-73
2023/01/01 00:51:16;;;;;;;0.70;0.70;;;;;;;16.30;57.03;99733.28;5072332;28;20228;-72
2023/01/01 00:53:41;;;;;;;6.63;1.00;;;;;;;16.24;57.19;99726.50;5071836;28;20626;-72
2023/01/01 00:56:07;;;;;;;3.13;1.37;;;;;;;16.26;57.08;99724.16;5071996;28;20179;-72
2023/01/01 00:58:32;;;;;;;1.83;0.70;;;;;;;16.29;56.93;99728.94;5072076;28;20181;-71
2023/01/01 01:00:58;;;;;;;2.43;1.63;;;;;;;16.24;57.13;99732.78;5071751;28;20256;-72
2023/01/01 01:03:27;;;;;;;2.20;0.83;;;;;;;16.22;57.13;99739.84;5071687;28;20735;-72
2023/01/01 01:06:15;;;;;;;0.40;0.40;;;;;;;16.17;57.20;99716.13;5071754;28;20181;-72
2023/01/01 01:08:42;;;;;;;7.63;1.43;;;;;;;16.31;56.84;99719.13;5071809;28;20683;-71
2023/01/01 01:11:09;;;;;;;0.00;0.00;;;;;;;16.28;56.98;99721.81;5071591;28;20856;-71
2023/01/01 01:13:35;;;;;;;2.50;0.97;;;;;;;16.29;57.17;99723.41;5071465;28;20171;-72
2023/01/01 01:16:07;;;;;;;0.50;0.50;;;;;;;16.29;57.02;99737.19;5071590;28;20534;-71
2023/01/01 01:18:32;;;;;;;3.93;1.27;;;;;;;16.29;56.93;99723.41;5070272;28;20179;-72
2023/01/01 01:20:58;;;;;;;6.33;1.77;;;;;;;16.24;57.82;99732.00;5071324;28;20217;-72
2023/01/01 01:23:23;;;;;;;8.43;1.60;;;;;;;16.20;57.74;99745.72;5071344;28;20174;-71
2023/01/01 01:25:48;;;;;;;6.27;1.63;;;;;;;16.32;57.08;99734.50;5071517;28;20186;-72
2023/01/01 01:28:14;;;;;;;5.87;1.83;;;;;;;16.35;56.98;99731.03;5071237;28;20193;-71
2023/01/01 01:30:40;;;;;;;1.30;1.20;;;;;;;16.32;57.14;99739.22;5071264;28;20179;-71
2023/01/01 01:33:06;;;;;;;3.03;1.60;;;;;;;16.25;57.20;99753.69;5071126;28;20170;-72
2023/01/01 01:35:32;;;;;;;4.10;1.47;;;;;;;16.30;56.88;99763.59;5071343;28;20174;-72
2023/01/01 01:37:57;;;;;;;4.73;1.93;;;;;;;16.31;56.56;99765.19;5071416;28;20309;-72
2023/01/01 01:40:23;;;;;;;3.77;1.43;;;;;;;16.34;56.29;99754.22;5071125;28;20794;-71
2023/01/01 01:42:50;;;;;;;1.37;1.27;;;;;;;16.35;56.26;99761.34;5070858;28;20252;-71
2023/01/01 01:45:16;;;;;;;5.50;1.10;;;;;;;16.28;56.56;99749.38;5071164;28;20212;-71
2023/01/01 01:47:49;;;;;;;5.70;1.60;;;;;;;16.23;56.68;99750.50;5069682;28;20517;-71
2023/01/01 01:50:14;;;;;;;5.53;0.87;;;;;;;16.20;56.56;99742.97;5070981;28;20174;-71
2023/01/01 01:52:51;;;;;;;5.43;1.67;;;;;;;16.30;56.07;99736.03;5070799;28;20208;-72
2023/01/01 01:55:16;;;;;;;10.37;2.20;;;;;;;16.21;56.92;99749.28;5071046;28;20216;-72
2023/01/01 01:57:42;;;;;;;2.97;1.50;;;;;;;16.15;57.10;99746.00;5070956;28;20170;-72
2023/01/01 02:00:08;;;;;;;11.27;1.87;;;;;;;16.12;56.79;99740.44;5070878;28;20178;-72
2023/01/01 02:03:06;;;;;;;2.43;1.30;;;;;;;16.25;56.19;99741.84;5070661;28;20202;-72
2023/01/01 02:05:33;;;;;;;7.23;1.50;;;;;;;16.21;56.34;99741.81;5070294;28;20244;-72
2023/01/01 02:08:01;;;;;;;4.83;2.07;;;;;;;16.17;56.32;99746.44;5070909;28;20580;-72
2023/01/01 02:10:27;;;;;;;2.63;1.40;;;;;;;16.21;55.85;99736.28;5070903;28;20256;-72
2023/01/01 02:12:53;;;;;;;0.50;0.50;;;;;;;16.26;55.47;99740.69;5070961;28;20174;-72
2023/01/01 02:15:19;;;;;;;6.43;1.17;;;;;;;16.17;56.04;99746.44;5069458;28;20182;-72
2023/01/01 02:18:02;;;;;;;5.70;1.60;;;;;;;16.10;56.33;99748.28;5070555;28;20170;-71
2023/01/01 02:20:36;;;;;;;2.57;1.50;;;;;;;16.03;56.28;99749.72;5070821;28;20170;-72
2023/01/01 02:23:25;;;;;;;2.97;1.20;;;;;;;16.01;56.34;99749.28;5070421;28;20534;-72
2023/01/01 02:26:24;;;;;;;8.37;1.47;;;;;;;15.97;56.23;99744.88;5070865;28;20228;-71
2023/01/01 02:29:03;;;;;;;1.17;1.07;;;;;;;15.94;56.61;99751.94;5076040;28;20534;-71
2023/01/01 02:31:35;;;;;;;2.73;1.80;;;;;;;15.91;56.67;99762.84;5077225;28;20644;-72
2023/01/01 02:34:04;;;;;;;1.07;0.70;;;;;;;15.94;56.20;99756.63;5077094;28;20175;-72
2023/01/01 02:36:34;;;;;;;1.57;1.03;;;;;;;15.94;56.30;99781.44;5077120;28;20530;-72
2023/01/01 02:39:03;;;;;;;0.50;0.50;;;;;;;15.95;56.36;99767.28;5077229;28;20527;-72
2023/01/01 02:41:34;;;;;;;1.53;1.50;;;;;;;15.91;56.26;99766.44;5077039;28;20236;-72
2023/01/01 02:44:02;;;;;;;6.43;1.80;;;;;;;16.10;55.01;99768.38;5077145;28;20202;-71
2023/01/01 02:46:33;;;;;;;1.90;1.60;;;;;;;16.04;55.42;99753.28;5077123;28;20265;-72
2023/01/01 02:48:59;;;;;;;11.13;2.73;;;;;;;16.13;54.58;99764.06;5076972;28;20696;-72
2023/01/01 02:51:36;;;;;;;0.27;0.27;;;;;;;16.22;54.16;99756.38;5076982;28;20162;-72
2023/01/01 02:54:15;;;;;;;0.93;0.70;;;;;;;16.19;54.65;99765.34;5076975;28;20552;-71
2023/01/01 02:57:03;;;;;;;23.13;1.43;;;;;;;16.13;54.43;99773.13;5077290;28;20553;-71
2023/01/01 03:02:35;;;;;;;0.00;0.00;;;;;;;15.92;55.86;99781.81;5077065;28;20213;-72
2023/01/01 03:05:22;;;;;;;2.30;1.57;;;;;;;15.83;55.87;99781.22;5077383;28;20185;-71
2023/01/01 03:08:01;;;;;;;1.00;0.67;;;;;;;15.91;55.19;99774.69;5076943;28;20170;-72
2023/01/01 03:10:56;;;;;;;0.03;0.03;;;;;;;15.87;55.49;99778.53;5076886;28;20174;-72
2023/01/01 03:13:28;;;;;;;18.60;2.00;;;;;;;15.83;55.34;99778.47;5076817;28;20301;-71
2023/01/01 03:16:06;;;;;;;0.83;0.83;;;;;;;15.84;55.15;99769.03;5076871;28;20245;-72
2023/01/01 03:18:41;;;;;;;0.77;0.73;;;;;;;15.83;55.02;99775.69;5076864;28;20174;-72
2023/01/01 03:21:08;;;;;;;2.30;1.87;;;;;;;15.80;55.02;99775.63;5077007;28;20611;-72
2023/01/01 03:23:39;;;;;;;1.33;0.90;;;;;;;15.81;54.90;99779.97;5076705;28;20687;-72
2023/01/01 03:26:10;;;;;;;0.00;0.00;;;;;;;15.83;54.60;99777.66;5076726;28;20178;-72
2023/01/01 03:28:47;;;;;;;8.37;1.40;;;;;;;15.73;55.52;99779.03;5076828;28;20185;-72
2023/01/01 03:31:16;;;;;;;0.00;0.00;;;;;;;15.70;54.71;99783.31;5076969;28;20320;-71
2023/01/01 03:33:47;;;;;;;1.70;1.40;;;;;;;15.76;54.54;99783.81;5078550;28;20231;-72
2023/01/01 03:36:18;;;;;;;2.77;1.33;;;;;;;15.77;54.52;99783.47;5078694;28;20634;-71
2023/01/01 03:39:04;;;;;;;2.43;0.87;;;;;;;15.69;54.52;99772.66;5073968;28;20829;-72
2023/01/01 03:41:35;;;;;;;4.03;1.57;;;;;;;15.63;54.74;99782.38;5073599;28;20595;-71
2023/01/01 03:44:13;;;;;;;21.43;2.43;;;;;;;15.58;55.13;99780.66;5073283;28;20178;-72
2023/01/01 03:46:39;;;;;;;12.40;1.97;;;;;;;15.54;54.51;99779.78;5073538;28;20182;-72
2023/01/01 03:49:09;;;;;;;9.33;1.13;;;;;;;15.53;54.85;99783.72;5073226;28;20864;-72
2023/01/01 03:51:37;;;;;;;12.03;4.53;;;;;;;15.51;54.87;99779.72;5073313;28;20174;-73
2023/01/01 03:54:11;;;;;;;1.53;1.00;;;;;;;15.46;54.76;99781.59;5072965;28;20253;-72
2023/01/01 03:56:47;;;;;;;1.27;1.17;;;;;;;15.47;54.50;99780.41;5073288;28;20184;-72
2023/01/01 03:59:23;;;;;;;0.53;0.43;;;;;;;15.46;54.87;99776.06;5073132;28;20181;-72
2023/01/01 04:01:55;;;;;;;1.13;1.10;;;;;;;15.45;54.19;99785.50;5073171;28;20198;-72
2023/01/01 04:04:21;;;;;;;2.43;2.13;;;;;;;15.46;54.03;99780.78;5071515;28;20248;-72
2023/01/01 04:06:46;;;;;;;1.70;1.30;;;;;;;15.42;54.90;99785.44;5073082;28;20301;-72
2023/01/01 04:09:20;;;;;;;0.50;0.50;;;;;;;15.43;54.42;99787.00;5072972;28;20537;-72
2023/01/01 04:12:06;;;;;;;4.53;1.40;;;;;;;15.38;54.47;99796.38;5072958;28;20178;-72
2023/01/01 04:14:40;;;;;;;1.20;1.03;;;;;;;15.46;54.03;99798.09;5072836;28;20194;-72
2023/01/01 04:17:07;;;;;;;0.10;0.10;;;;;;;15.42;54.39;99819.25;5072860;28;20629;-72
2023/01/01 04:19:33;;;;;;;9.73;1.07;;;;;;;15.40;54.90;99796.00;5072844;28;20232;-71
2023/01/01 04:21:59;;;;;;;7.97;2.17;;;;;;;15.41;54.78;99820.41;5072549;28;20665;-72
2023/01/01 04:24:24;;;;;;;1.37;1.30;;;;;;;15.41;54.62;99798.41;5072590;28;20171;-72
2023/01/01 04:26:50;;;;;;;4.20;1.70;;;;;;;15.38;54.47;99807.38;5072581;28;20253;-72
2023/01/01 04:29:16;;;;;;;1.43;1.43;;;;;;;15.36;54.90;99812.44;5072753;28;20197;-72
2023/01/01 04:31:41;;;;;;;2.87;1.40;;;;;;;15.33;54.74;99802.13;5072534;28;20625;-72
2023/01/01 04:34:07;;;;;;;0.20;0.20;;;;;;;15.25;54.98;99808.66;5072835;28;20178;-72
2023/01/01 04:36:32;;;;;;;0.83;0.83;;;;;;;15.27;54.93;99814.59;5072266;28;20229;-72
2023/01/01 04:38:58;;;;;;;6.57;0.97;;;;;;;15.28;54.85;99812.63;5072329;28;20187;-72
2023/01/01 04:41:23;;;;;;;2.40;1.10;;;;;;;15.33;54.47;99810.38;5072005;28;20198;-72
2023/01/01 04:43:51;;;;;;;2.17;1.03;;;;;;;15.28;54.86;99813.44;5072203;28;20178;-72
2023/01/01 04:46:19;;;;;;;0.87;0.87;;;;;;;15.27;55.05;99822.84;5072228;28;20614;-73
2023/01/01 04:48:45;;;;;;;1.33;1.23;;;;;;;15.30;54.72;99824.88;5072193;28;20178;-72
2023/01/01 04:51:13;;;;;;;0.80;0.80;;;;;;;15.27;55.01;99828.34;5071702;28;20179;-72
2023/01/01 04:53:38;;;;;;;0.97;0.93;;;;;;;15.29;54.32;99831.53;5071806;28;20327;-72
2023/01/01 04:56:04;;;;;;;1.27;1.17;;;;;;;15.24;54.79;99828.28;5072017;28;20258;-72
2023/01/01 04:58:30;;;;;;;0.97;0.73;;;;;;;15.18;55.23;99838.72;5071917;28;20654;-72
2023/01/01 05:00:56;;;;;;;2.57;1.50;;;;;;;15.19;55.48;99834.84;5071969;28;20178;-72
2023/01/01 05:03:21;;;;;;;0.40;0.40;;;;;;;15.24;54.69;99839.28;5070280;28;20187;-73
2023/01/01 05:05:48;;;;;;;0.80;0.80;;;;;;;15.24;55.03;99848.34;5072091;28;20415;-72
2023/01/01 05:08:14;;;;;;;0.70;0.70;;;;;;;15.25;54.73;99843.63;5072167;28;20181;-72
2023/01/01 05:10:39;;;;;;;0.00;0.00;;;;;;;15.14;55.77;99846.91;5071797;28;20589;-72
2023/01/01 05:13:08;;;;;;;2.23;1.10;;;;;;;15.21;55.47;99856.50;5071593;28;20170;-73
2023/01/01 05:15:36;;;;;;;0.30;0.30;;;;;;;15.19;55.46;99862.38;5071548;28;20206;-72
2023/01/01 05:18:02;;;;;;;0.43;0.30;;;;;;;15.13;55.79;99853.56;5071561;28;20175;-72
2023/01/01 05:20:27;;;;;;;8.10;0.20;;;;;;;15.15;55.76;99858.72;5071586;28;20228;-72
2023/01/01 05:22:53;;;;;;;0.20;0.20;;;;;;;15.05;56.05;99873.03;5071342;28;20618;-72
2023/01/01 05:25:18;;;;;;;1.30;0.57;;;;;;;15.07;56.00;99860.50;5071625;28;20228;-72
2023/01/01 05:27:43;;;;;;;1.03;0.57;;;;;;;15.02;56.16;99871.75;5071452;28;20487;-72
2023/01/01 05:30:09;;;;;;;1.87;1.13;;;;;;;15.07;55.76;99879.78;5071336;28;20685;-71
2023/01/01 05:32:36;;;;;;;0.00;0.00;;;;;;;15.06;56.40;99871.88;5071208;28;20170;-72
2023/01/01 05:35:01;;;;;;;0.30;0.30;;;;;;;15.08;56.18;99875.06;5071325;28;20177;-72
2023/01/01 05:37:27;;;;;;;1.17;0.83;;;;;;;15.11;55.74;99879.84;5071485;28;20525;-72
2023/01/01 05:39:52;;;;;;;0.57;0.57;;;;;;;15.04;56.43;99879.66;5071229;28;20673;-72
2023/01/01 05:42:18;;;;;;;1.33;1.20;;;;;;;15.05;56.22;99876.59;5071153;28;20275;-72
2023/01/01 05:44:44;;;;;;;5.53;1.07;;;;;;;15.07;55.94;99878.97;5069687;28;20565;-71
2023/01/01 05:47:09;;;;;;;6.23;1.17;;;;;;;15.02;56.44;99868.22;5071074;28;20179;-72
2023/01/01 05:49:35;;;;;;;1.20;1.10;;;;;;;15.03;56.19;99900.06;5071044;28;20249;-72
2023/01/01 05:52:00;;;;;;;0.00;0.00;;;;;;;15.04;56.41;99882.41;5071234;28;20197;-72
2023/01/01 05:54:26;;;;;;;2.50;1.30;;;;;;;15.03;56.10;99887.13;5070806;28;20186;-72
2023/01/01 05:56:51;;;;;;;0.10;0.10;;;;;;;15.06;56.33;99885.63;5070918;28;20170;-72
2023/01/01 05:59:16;;;;;;;0.50;0.50;;;;;;;15.01;56.49;99892.19;5070933;28;20179;-72
2023/01/01 06:01:42;;;;;;;10.17;0.73;;;;;;;14.93;56.98;99890.41;5070171;28;20600;-72
2023/01/01 06:04:08;;;;;;;3.37;1.40;;;;;;;15.00;56.41;99890.59;5070618;28;20213;-72
2023/01/01 06:06:33;;;;;;;10.07;0.83;;;;;;;15.00;56.35;99893.34;5070809;28;20476;-72
2023/01/01 06:09:01;;;;;;;1.60;1.07;;;;;;;14.98;56.18;99906.66;5070901;28;20206;-72
2023/01/01 06:11:27;;;;;;;5.60;1.60;;;;;;;14.92;56.86;99899.03;5070590;28;20185;-72
2023/01/01 06:13:53;;;;;;;0.40;0.40;;;;;;;14.87;56.95;99911.88;5070669;28;20174;-72
2023/01/01 06:16:19;;;;;;;1.20;0.53;;;;;;;14.85;57.02;99919.69;5070742;28;20180;-72
2023/01/01 06:18:44;;;;;;;0.73;0.60;;;;;;;14.79;57.33;99923.84;5070835;28;20650;-72
2023/01/01 06:21:12;;;;;;;0.20;0.20;;;;;;;14.75;57.87;99939.44;5070608;28;20198;-72
2023/01/01 06:23:39;;;;;;;0.20;0.20;;;;;;;14.79;57.66;99923.06;5070616;28;20214;-72
2023/01/01 06:26:05;;;;;;;0.57;0.53;;;;;;;14.78;57.55;99919.50;5070641;28;20166;-72
2023/01/01 06:28:30;;;;;;;0.10;0.10;;;;;;;14.72;57.78;99920.09;5070523;28;20189;-72
2023/01/01 06:30:59;;;;;;;0.00;0.00;;;;;;;14.65;58.17;99917.16;5070655;28;20175;-72
2023/01/01 06:33:25;;;;;;;0.20;0.20;;;;;;;14.56;58.33;99907.13;5070467;28;20174;-72
2023/01/01 06:35:50;;;;;;;0.10;0.10;;;;;;;14.50;58.85;99918.72;5071045;28;20691;-72
2023/01/01 06:38:15;;;;;;;0.40;0.40;;;;;;;14.53;58.63;99932.56;5070481;28;20227;-72
2023/01/01 06:40:40;;;;;;;1.93;0.73;;;;;;;14.52;58.70;99935.66;5070443;28;20210;-72
2023/01/01 06:43:06;;;;;;;0.83;0.83;;;;;;;14.58;58.28;99940.53;5070299;28;20262;-72
2023/01/01 06:45:31;;;;;;;1.60;1.10;;;;;;;14.64;58.04;99952.13;5070794;28;20186;-72
2023/01/01 06:47:56;;;;;;;0.20;0.20;;;;;;;14.59;58.22;99947.63;5070462;28;20667;-72
2023/01/01 06:50:21;;;;;;;0.47;0.47;;;;;;;14.57;58.43;99949.16;5070361;28;20232;-72
2023/01/01 06:52:47;;;;;;;0.00;0.00;;;;;;;14.49;58.91;99953.66;5068655;28;20182;-72
2023/01/01 06:55:12;;;;;;;1.00;0.43;;;;;;;14.54;58.66;99950.66;5070437;28;20178;-72
2023/01/01 06:57:37;;;;;;;0.70;0.57;;;;;;;14.51;58.91;99967.06;5070361;28;20185;-72
2023/01/01 07:00:04;;;;;;;0.47;0.47;;;;;;;14.61;58.26;99969.31;5070100;28;20622;-72
2023/01/01 07:02:29;;;;;;;3.83;0.20;;;;;;;14.57;58.81;99963.69;5070083;28;20249;-72
2023/01/01 07:04:54;;;;;;;0.20;0.20;;;;;;;14.50;58.94;99965.47;5070139;28;20209;-72
2023/01/01 07:07:20;;;;;;;0.50;0.50;;;;;;;14.52;59.12;99976.91;5070172;28;20174;-72
2023/01/01 07:09:45;;;;;;;1.20;0.40;;;;;;;14.49;59.30;99981.16;5070184;28;20198;-72
2023/01/01 07:12:10;;;;;;;0.00;0.00;;;;;;;14.53;58.86;99989.50;5070378;28;20178;-72
2023/01/01 07:14:35;;;;;;;0.10;0.10;;;;;;;14.50;59.29;100002.00;5073773;28;20171;-72
2023/01/01 07:17:01;;;;;;;0.40;0.40;;;;;;;14.53;59.06;99993.03;5073967;28;20224;-72
2023/01/01 07:19:26;;;;;;;2.03;0.63;;;;;;;14.51;59.38;100019.28;5074088;28;20257;-72
2023/01/01 07:21:53;;;;;;;0.30;0.17;;;;;;;14.54;58.88;100007.59;5073602;28;20665;-72
2023/01/01 07:24:19;;;;;;;1.13;1.03;;;;;;;14.57;59.22;100001.38;5073858;28;20170;-72
2023/01/01 07:26:45;;;;;;;0.43;0.43;;;;;;;14.52;59.34;100005.19;5073705;28;20725;-72
2023/01/01 07:29:11;;;;;;;0.20;0.20;;;;;;;14.51;59.55;100006.34;5073613;28;20693;-72
2023/01/01 07:31:39;;;;;;;0.00;0.00;;;;;;;14.49;59.41;100029.84;5073751;28;20170;-72
2023/01/01 07:34:06;;;;;;;1.67;0.60;;;;;;;14.48;59.78;100041.97;5073456;28;20178;-72
2023/01/01 07:36:32;;;;;;;0.60;0.17;;;;;;;14.50;59.58;100045.19;5073494;28;20228;-72
2023/01/01 07:38:57;;;;;;;0.25;0.25;;;;;;;14.46;60.10;100053.28;5073526;28;20901;-72
2023/01/01 07:41:22;;;;;;;0.90;0.70;;;;;;;14.43;60.51;100064.16;5073291;28;20199;-72
2023/01/01 07:43:47;;;;;;;1.17;0.73;;;;;;;14.33;60.52;100068.19;5073321;28;20185;-72
2023/01/01 07:46:20;;;;;;;2.27;1.17;;;;;;;14.31;60.91;100078.72;5073447;28;20182;-72
2023/01/01 07:48:45;;;;;;;0.00;0.00;;;;;;;14.36;60.88;100072.19;5073425;28;20652;-72
2023/01/01 07:51:11;;;;;;;1.40;0.83;;;;;;;14.38;60.63;100070.69;5073301;28;20171;-72
2023/01/01 07:53:36;;;;;;;1.50;0.60;;;;;;;14.40;60.91;100071.16;5072961;28;20206;-72
2023/01/01 07:56:01;;;;;;;0.00;0.00;;;;;;;14.42;60.75;100079.84;5073488;28;20202;-72
2023/01/01 07:58:26;;;;;;;0.17;0.17;;;;;;;14.38;61.18;100091.88;5073236;28;20261;-72
2023/01/01 08:00:52;;;;;;;1.27;1.17;;;;;;;14.38;61.22;100091.88;5071816;28;20171;-72
2023/01/01 08:03:17;;;;;;;8.13;2.53;;;;;;;14.46;60.86;100105.53;5072681;28;20182;-72
2023/01/01 08:05:43;;;;;;;0.40;0.40;;;;;;;14.47;61.19;100103.59;5073145;28;20544;-72
2023/01/01 08:08:09;;;;;;;6.03;0.70;;;;;;;14.39;61.33;100104.47;5073134;28;20228;-72
2023/01/01 08:10:34;;;;;;;0.30;0.30;;;;;;;14.31;61.72;100086.97;5073257;28;20170;-72
2023/01/01 08:13:01;;;;;;;5.93;4.97;;;;;;;14.45;60.98;100089.38;5072877;28;20181;-72
2023/01/01 08:15:27;;;;;;;1.43;0.73;;;;;;;14.42;61.21;100093.59;5073012;28;20650;-72
2023/01/01 08:17:56;;;;;;;4.63;2.10;;;;;;;14.45;61.27;100094.88;5073131;28;20175;-72
2023/01/01 08:20:22;;;;;;;2.63;0.90;;;;;;;14.42;60.96;100090.84;5071505;28;20641;-72
2023/01/01 08:22:47;;;;;;;0.70;0.70;;;;;;;14.48;60.80;100111.50;5072877;28;20293;-72
2023/01/01 08:25:12;;;;;;;0.30;0.30;;;;;;;14.50;60.45;100119.41;5072277;28;20172;-72
2023/01/01 08:27:38;;;;;;;6.13;3.30;;;;;;;14.49;60.61;100118.59;5072595;28;20171;-72
2023/01/01 08:30:04;;;;;;;2.53;2.27;;;;;;;14.48;60.56;100116.19;5072578;28;20633;-72
2023/01/01 08:32:29;;;;;;;0.17;0.10;;;;;;;14.46;60.88;100123.97;5072793;28;20209;-72
2023/01/01 08:34:54;;;;;;;2.23;1.63;;;;;;;14.40;61.17;100114.31;5072632;28;20178;-72
2023/01/01 08:37:20;;;;;;;1.17;0.43;;;;;;;14.23;62.17;100121.66;5072402;28;20189;-72
2023/01/01 08:39:48;;;;;;;1.10;0.30;;;;;;;14.26;62.26;100125.66;5072431;28;20257;-70
2023/01/01 08:42:14;;;;;;;0.90;0.80;;;;;;;14.25;62.34;100141.34;5072249;28;20285;-70
2023/01/01 08:44:39;;;;;;;0.50;0.37;;;;;;;14.33;61.92;100136.09;5072307;28;20269;-69
2023/01/01 08:47:04;;;;;;;2.87;2.33;;;;;;;14.35;61.68;100142.06;5072030;28;20176;-70
2023/01/01 08:49:29;;;;;;;8.37;0.80;;;;;;;14.30;62.09;100124.63;5072241;28;20577;-70
2023/01/01 08:51:55;;;;;;;0.43;0.33;;;;;;;14.29;62.20;100141.47;5072052;28;20193;-70
2023/01/01 08:54:20;;;;;;;0.63;0.37;;;;;;;14.27;61.91;100141.81;5071945;28;20185;-70
2023/01/01 08:56:45;;;;;;;0.80;0.80;;;;;;;14.22;62.46;100144.00;5072054;28;20185;-70
2023/01/01 08:59:11;;;;;;;0.60;0.60;;;;;;;14.26;62.06;100142.97;5071838;28;20178;-70
2023/01/01 09:01:36;;;;;;;2.23;1.20;;;;;;;14.30;62.04;100159.56;5071807;28;20206;-70
2023/01/01 09:04:01;;;;;;;1.20;0.40;;;;;;;14.25;62.38;100157.03;5071684;28;20182;-71
2023/01/01 09:06:26;;;;;;;0.87;0.37;;;;;;;14.28;62.32;100168.16;5071941;28;20181;-70
2023/01/01 09:08:52;;;;;;;0.60;0.60;;;;;;;14.33;62.08;100169.88;5071861;28;20228;-70
2023/01/01 09:11:23;;;;;;;0.97;0.70;;;;;;;14.28;62.35;100184.63;5071740;28;20261;-70
2023/01/01 09:13:49;;;;;;;0.43;0.40;;;;;;;14.23;62.59;100192.31;5071494;28;20182;-70
2023/01/01 09:16:14;;;;;;;0.20;0.20;;;;;;;14.21;63.01;100200.91;5070347;28;20181;-72
2023/01/01 09:18:39;;;;;;;2.43;0.73;;;;;;;14.18;63.08;100201.59;5071585;28;20229;-71
2023/01/01 09:21:05;;;;;;;0.27;0.27;;;;;;;14.17;62.75;100210.16;5071592;28;20258;-71
2023/01/01 09:23:30;;;;;;;1.23;0.90;;;;;;;14.16;63.48;100214.03;5071319;28;20178;-71
2023/01/01 09:26:01;;;;;;;0.10;0.10;;;;;;;14.17;63.43;100213.69;5071519;28;20280;-71
2023/01/01 09:28:28;;;;;;;1.00;0.40;;;;;;;14.15;64.02;100221.47;5071359;28;20253;-71
2023/01/01 09:30:53;;;;;;;2.03;0.77;;;;;;;14.13;64.40;100218.28;5071410;28;20178;-71
2023/01/01 09:33:19;;;;;;;2.20;0.60;;;;;;;14.14;64.21;100224.56;5071046;28;20186;-72
2023/01/01 09:35:44;;;;;;;2.90;0.57;;;;;;;14.13;64.64;100231.22;5070595;28;20648;-71
2023/01/01 09:38:09;;;;;;;6.60;0.40;;;;;;;14.18;64.08;100237.31;5070714;28;20196;-71
2023/01/01 09:40:50;;;;;;;20.73;0.60;;;;;;;14.19;64.34;100241.66;5070916;28;20171;-71
2023/01/01 09:43:40;;;;;;;0.00;0.00;;;;;;;14.17;64.47;100254.09;5070851;28;20182;-71
2023/01/01 09:46:06;;;;;;;0.50;0.40;;;;;;;14.13;64.56;100259.47;5070986;28;20591;-72
2023/01/01 09:48:34;;;;;;;0.60;0.50;;;;;;;14.13;64.94;100256.75;5070856;28;20174;-72
2023/01/01 09:51:03;;;;;;;7.27;1.47;;;;;;;14.11;64.97;100263.72;5071156;28;20348;-72
2023/01/01 09:53:41;;;;;;;1.80;0.87;;;;;;;14.14;64.71;100258.34;5070440;28;20183;-72
2023/01/01 09:56:14;;;;;;;0.73;0.50;;;;;;;14.14;64.89;100258.34;5070902;28;20209;-72
2023/01/01 09:58:39;;;;;;;1.57;1.00;;;;;;;14.12;65.07;100273.56;5071351;28;20183;-72
2023/01/01 10:01:46;;;;;;;1.53;0.30;;;;;;;14.11;65.48;100277.47;5071592;28;20227;-72
2023/01/01 10:04:33;;;;;;;2.13;0.37;;;;;;;14.04;66.16;100282.72;5072779;28;20182;-72
2023/01/01 10:07:01;;;;;;;2.60;0.57;;;;;;;13.98;66.32;100287.59;5071020;28;20174;-70
2023/01/01 10:09:50;;;;;;;1.63;1.60;;;;;;;13.98;66.66;100290.34;5070942;28;20183;-70
2023/01/01 10:12:37;;;;;;;0.50;0.50;;;;;;;13.97;66.67;100305.22;5057892;28;20216;-71
2023/01/01 10:15:16;;;;;;;8.17;1.57;;;;;;;13.93;67.03;100307.84;5070968;28;20162;-70
2023/01/01 10:17:45;;;;;;;0.00;0.00;;;;;;;13.91;67.58;100314.81;5070768;28;20626;-70
2023/01/01 10:20:18;;;;;;;1.43;1.00;;;;;;;13.58;71.42;100333.97;5070771;28;20581;-70
2023/01/01 10:22:48;;;;;;;0.30;0.30;;;;;;;13.12;75.73;100335.69;5070587;28;20198;-70
2023/01/01 10:25:23;;;;;;;11.87;1.23;;;;;;;12.77;78.88;100346.81;5071022;28;20172;-70
2023/01/01 10:27:56;;;;;;;0.37;0.37;;;;;;;12.50;81.58;100348.03;5070694;28;20181;-70
2023/01/01 10:30:23;;;;;;;0.27;0.17;;;;;;;12.40;83.56;100345.63;5070880;28;20547;-71
2023/01/01 10:32:51;;;;;;;7.67;0.47;;;;;;;12.31;84.56;100339.38;5070544;28;20833;-70
2023/01/01 10:35:30;;;;;;;0.47;0.40;;;;;;;12.30;86.22;100336.97;5070608;28;20567;-70
2023/01/01 10:37:59;;;;;;;0.10;0.10;;;;;;;12.27;86.47;100338.41;5070607;28;20170;-70
2023/01/01 10:40:26;;;;;;;0.87;0.57;;;;;;;12.24;86.98;100344.53;5070539;28;20174;-71
2023/01/01 10:42:54;;;;;;;0.20;0.20;;;;;;;12.26;87.53;100347.75;5070200;28;20285;-71
2023/01/01 10:45:31;;;;;;;0.00;0.00;;;;;;;12.27;87.30;100348.56;5070562;28;20712;-70
2023/01/01 10:48:12;;;;;;;0.60;0.60;;;;;;;12.30;87.26;100356.94;5071649;28;20297;-72
2023/01/01 10:51:12;;;;;;;0.10;0.10;;;;;;;12.26;88.47;100347.75;5074624;28;20167;-71
2023/01/01 10:53:48;;;;;;;0.10;0.10;;;;;;;12.31;88.29;100355.81;5074147;28;20641;-71
2023/01/01 10:56:16;;;;;;;0.00;0.00;;;;;;;12.26;89.07;100366.91;5074444;28;20517;-71
2023/01/01 10:58:49;;;;;;;0.57;0.43;;;;;;;12.24;89.71;100369.19;5073935;28;20644;-71
2023/01/01 11:01:21;;;;;;;0.10;0.10;;;;;;;12.19;89.08;100370.16;5074170;28;20198;-71
2023/01/01 11:04:06;;;;;;;0.30;0.30;;;;;;;12.19;89.09;100383.06;5073701;28;20214;-71
2023/01/01 11:06:41;;;;;;;2.67;1.43;;;;;;;12.15;89.55;100385.66;5059685;28;20239;-71
2023/01/01 11:09:22;;;;;;;0.53;0.53;;;;;;;12.13;90.46;100400.75;5075179;28;20170;-71
2023/01/01 11:11:55;;;;;;;0.27;0.27;;;;;;;12.09;90.91;100392.41;5074095;28;20198;-71
2023/01/01 11:14:26;;;;;;;0.20;0.20;;;;;;;12.07;91.34;100393.84;5074032;28;20165;-70
2023/01/01 11:16:52;;;;;;;0.10;0.10;;;;;;;12.05;91.87;100390.63;5074061;28;20265;-71
2023/01/01 11:19:28;;;;;;;6.13;0.20;;;;;;;11.98;93.17;100393.03;5073987;28;20174;-72
2023/01/01 11:21:53;;;;;;;1.70;0.97;;;;;;;11.88;94.59;100394.97;5073704;28;20202;-71
2023/01/01 11:24:22;;;;;;;0.30;0.30;;;;;;;11.76;96.48;100383.81;5073695;28;20258;-71
2023/01/01 11:26:48;;;;;;;2.87;1.30;;;;;;;11.63;99.14;100384.78;5074025;28;20183;-71
2023/01/01 11:29:27;;;;;;;1.23;1.03;;;;;;;11.53;100.00;100379.59;5074043;28;20513;-71
2023/01/01 11:31:53;;;;;;;5.50;0.50;;;;;;;11.54;100.00;100359.31;5073730;28;20178;-71
2023/01/01 11:34:32;;;;;;;1.73;1.00;;;;;;;11.51;100.00;100349.03;5073560;28;20228;-72
2023/01/01 11:37:12;;;;;;;0.00;0.00;;;;;;;11.48;100.00;100339.53;5073532;28;20220;-71
2023/01/01 11:39:42;;;;;;;0.60;0.60;;;;;;;11.48;100.00;100344.19;5073578;28;20575;-70
2023/01/01 11:42:07;;;;;;;0.00;0.00;;;;;;;11.46;100.00;100330.84;5073001;28;20673;-72